createdAt,value
2018-09-13T00:00:45.285Z,6.07
2018-09-13T00:03:13.695Z,5.23
2018-09-13T00:05:42.120Z,8.63
2018-09-13T00:08:10.694Z,7.53
2018-09-13T00:10:39.541Z,7.27
2018-09-13T00:13:08.343Z,6.53
2018-09-13T00:15:37.226Z,10.63
2018-09-13T00:18:05.661Z,7.10
2018-09-13T00:20:34.444Z,10.60
2018-09-13T00:23:03.334Z,14.63
2018-09-13T00:25:32.117Z,13.40
2018-09-13T00:28:00.489Z,12.93
2018-09-13T00:30:29.290Z,14.83
2018-09-13T00:32:58.093Z,15.23
2018-09-13T00:35:26.883Z,16.60
2018-09-13T00:37:55.697Z,14.33
2018-09-13T00:40:24.107Z,16.87
2018-09-13T00:42:52.484Z,13.23
2018-09-13T00:45:20.902Z,10.53
2018-09-13T00:47:49.254Z,14.93
2018-09-13T00:50:17.702Z,18.63
2018-09-13T00:52:46.560Z,17.53
2018-09-13T00:55:15.354Z,21.60
2018-09-13T00:57:44.214Z,14.93
2018-09-13T01:00:12.615Z,18.40
2018-09-13T01:02:41.379Z,19.40
2018-09-13T01:05:09.791Z,14.60
2018-09-13T01:07:38.617Z,14.00
2018-09-13T01:10:07.025Z,14.00
2018-09-13T01:12:35.493Z,13.43
2018-09-13T01:15:04.317Z,13.73
2018-09-13T01:17:33.109Z,17.73
2018-09-13T01:20:01.931Z,13.67
2018-09-13T01:22:30.714Z,11.87
2018-09-13T01:24:59.539Z,14.73
2018-09-13T01:27:28.784Z,13.83
2018-09-13T01:29:57.836Z,11.97
2018-09-13T01:32:26.627Z,9.87
2018-09-13T01:34:55.424Z,10.33
2018-09-13T01:37:23.927Z,10.80
2018-09-13T01:39:52.685Z,13.23
2018-09-13T01:42:21.507Z,13.93
2018-09-13T01:44:50.319Z,12.10
2018-09-13T01:47:19.229Z,13.60
2018-09-13T01:49:48.066Z,11.67
2018-09-13T01:52:16.838Z,12.13
2018-09-13T01:54:45.616Z,12.27
2018-09-13T01:57:14.379Z,11.70
2018-09-13T01:59:43.138Z,11.53
2018-09-13T02:02:11.528Z,9.53
2018-09-13T02:04:40.308Z,10.87
2018-09-13T02:07:08.788Z,12.13
2018-09-13T02:09:37.542Z,11.40
2018-09-13T02:12:06.101Z,14.37
2018-09-13T02:14:34.863Z,14.60
2018-09-13T02:17:03.678Z,14.00
2018-09-13T02:19:32.411Z,9.93
2018-09-13T02:22:01.240Z,10.30
2018-09-13T02:24:30.040Z,9.63
2018-09-13T02:26:58.753Z,11.80
2018-09-13T02:29:27.523Z,12.63
2018-09-13T02:31:55.885Z,13.20
2018-09-13T02:34:24.654Z,12.60
2018-09-13T02:36:53.454Z,12.40
2018-09-13T02:39:22.223Z,12.60
2018-09-13T02:41:50.646Z,14.73
2018-09-13T02:44:19.425Z,13.90
2018-09-13T02:46:47.907Z,15.50
2018-09-13T02:49:16.658Z,15.17
2018-09-13T02:51:45.438Z,12.17
2018-09-13T02:54:13.829Z,12.40
2018-09-13T02:56:42.214Z,11.93
2018-09-13T02:59:10.981Z,13.83
2018-09-13T03:01:39.724Z,13.03
2018-09-13T03:04:08.075Z,13.43
2018-09-13T03:06:36.843Z,10.17
2018-09-13T03:09:09.065Z,11.17
2018-09-13T03:11:37.889Z,11.63
2018-09-13T03:14:06.354Z,10.17
2018-09-13T03:16:34.749Z,12.40
2018-09-13T03:19:03.161Z,9.37
2018-09-13T03:21:31.995Z,8.23
2018-09-13T03:24:00.803Z,6.73
2018-09-13T03:26:29.605Z,9.13
2018-09-13T03:28:58.461Z,9.13
2018-09-13T03:31:26.923Z,10.03
2018-09-13T03:33:55.773Z,7.73
2018-09-13T03:36:24.611Z,9.37
2018-09-13T03:38:52.997Z,8.97
2018-09-13T03:41:21.734Z,8.33
2018-09-13T03:43:50.464Z,8.17
2018-09-13T03:46:19.199Z,10.00
2018-09-13T03:48:47.601Z,9.97
2018-09-13T03:51:15.957Z,11.77
2018-09-13T03:53:44.701Z,10.20
2018-09-13T03:56:13.483Z,11.03
2018-09-13T03:58:42.197Z,11.80
2018-09-13T04:01:10.991Z,10.00
2018-09-13T04:03:39.378Z,11.37
2018-09-13T04:06:08.299Z,9.50
2018-09-13T04:08:36.708Z,11.13
2018-09-13T04:11:05.466Z,11.47
2018-09-13T04:13:34.037Z,11.70
2018-09-13T04:16:02.795Z,12.00
2018-09-13T04:18:31.575Z,8.03
2018-09-13T04:21:00.346Z,10.90
2018-09-13T04:23:29.383Z,8.63
2018-09-13T04:25:57.746Z,10.43
2018-09-13T04:28:26.496Z,6.97
2018-09-13T04:30:54.889Z,8.03
2018-09-13T04:33:23.226Z,7.13
2018-09-13T04:35:52.123Z,4.30
2018-09-13T04:38:20.434Z,3.93
2018-09-13T04:40:49.245Z,6.73
2018-09-13T04:43:18.054Z,6.07
2018-09-13T04:45:46.966Z,5.43
2018-09-13T04:48:15.505Z,7.07
2018-09-13T04:50:43.844Z,6.40
2018-09-13T04:53:12.578Z,5.40
2018-09-13T04:55:40.974Z,4.43
2018-09-13T04:58:09.627Z,6.47
2018-09-13T05:00:38.409Z,4.20
2018-09-13T05:03:07.177Z,4.27
2018-09-13T05:05:35.561Z,5.30
2018-09-13T05:08:03.980Z,7.23
2018-09-13T05:10:32.761Z,6.07
2018-09-13T05:13:01.525Z,4.60
2018-09-13T05:15:29.859Z,5.93
2018-09-13T05:17:58.576Z,6.27
2018-09-13T05:20:26.983Z,4.87
2018-09-13T05:22:55.355Z,4.67
2018-09-13T05:25:23.838Z,8.30
2018-09-13T05:27:52.183Z,3.90
2018-09-13T05:30:20.969Z,5.77
2018-09-13T05:32:49.316Z,8.00
2018-09-13T05:35:17.676Z,6.87
2018-09-13T05:37:46.162Z,6.73
2018-09-13T05:40:14.616Z,6.47
2018-09-13T05:42:42.965Z,6.23
2018-09-13T05:45:11.430Z,9.67
2018-09-13T05:47:40.166Z,12.17
2018-09-13T05:50:08.948Z,9.67
2018-09-13T05:52:37.409Z,11.30
2018-09-13T05:55:06.173Z,11.80
2018-09-13T05:57:34.614Z,16.60
2018-09-13T06:00:03.034Z,11.53
2018-09-13T06:02:31.818Z,11.63
2018-09-13T06:05:00.582Z,14.27
2018-09-13T06:07:29.384Z,12.33
2018-09-13T06:09:58.221Z,12.17
2018-09-13T06:12:26.961Z,15.40
2018-09-13T06:14:55.619Z,19.87
2018-09-13T06:17:24.365Z,17.97
2018-09-13T06:19:53.189Z,17.40
2018-09-13T06:22:21.917Z,20.90
2018-09-13T06:24:50.669Z,18.07
2018-09-13T06:27:19.435Z,18.30
2018-09-13T06:29:48.220Z,18.97
2018-09-13T06:32:16.986Z,19.10
2018-09-13T06:34:45.726Z,23.50
2018-09-13T06:37:14.528Z,22.50
2018-09-13T06:39:43.280Z,18.63
2018-09-13T06:42:11.657Z,21.30
2018-09-13T06:44:40.448Z,17.93
2018-09-13T06:47:08.846Z,16.47
2018-09-13T06:49:37.649Z,15.23
2018-09-13T06:52:05.991Z,16.20
2018-09-13T06:54:34.361Z,12.70
2018-09-13T06:57:02.730Z,18.40
2018-09-13T06:59:31.464Z,13.37
2018-09-13T07:02:00.246Z,9.57
2018-09-13T07:04:29.075Z,17.30
2018-09-13T07:06:57.834Z,26.80
2018-09-13T07:09:26.585Z,11.23
2018-09-13T07:11:55.008Z,11.57
2018-09-13T07:14:23.821Z,13.47
2018-09-13T07:16:52.220Z,15.27
2018-09-13T07:19:20.902Z,12.13
2018-09-13T07:21:49.667Z,14.67
2018-09-13T07:24:18.407Z,21.03
2018-09-13T07:26:47.172Z,7.07
2018-09-13T07:29:15.985Z,11.63
2018-09-13T07:31:44.765Z,14.67
2018-09-13T07:34:13.522Z,16.20
2018-09-13T07:36:41.964Z,17.73
2018-09-13T07:39:11.898Z,21.63
2018-09-13T07:41:40.658Z,9.57
2018-09-13T07:44:09.411Z,12.50
2018-09-13T07:46:38.203Z,13.37
2018-09-13T07:49:07.120Z,12.73
2018-09-13T07:51:35.805Z,6.83
2018-09-13T07:54:04.153Z,5.70
2018-09-13T07:56:32.630Z,7.20
2018-09-13T07:59:01.339Z,5.50
2018-09-13T08:01:30.091Z,11.47
2018-09-13T08:03:58.841Z,5.13
2018-09-13T08:06:27.247Z,11.27
2018-09-13T08:08:55.993Z,4.43
2018-09-13T08:11:24.774Z,4.70
2018-09-13T08:13:53.562Z,4.93
2018-09-13T08:16:21.970Z,8.17
2018-09-13T08:18:50.357Z,4.97
2018-09-13T08:21:19.077Z,4.93
2018-09-13T08:23:47.474Z,3.70
2018-09-13T08:26:16.196Z,7.33
2018-09-13T08:28:44.942Z,9.00
2018-09-13T08:31:13.724Z,6.57
2018-09-13T08:33:42.498Z,6.93
2018-09-13T08:36:11.276Z,4.20
2018-09-13T08:38:39.667Z,4.50
2018-09-13T08:41:08.475Z,3.83
2018-09-13T08:43:37.332Z,8.03
2018-09-13T08:46:06.113Z,5.13
2018-09-13T08:48:34.910Z,5.47
2018-09-13T08:51:03.696Z,5.50
2018-09-13T08:53:32.164Z,2.83
2018-09-13T08:56:01.137Z,4.63
2018-09-13T08:58:29.893Z,6.90
2018-09-13T09:01:04.297Z,5.00
2018-09-13T09:03:33.037Z,5.03
2018-09-13T09:06:01.760Z,8.03
2018-09-13T09:08:30.537Z,4.43
2018-09-13T09:10:59.286Z,6.00
2018-09-13T09:13:28.117Z,7.63
2018-09-13T09:15:56.783Z,7.73
2018-09-13T09:18:25.584Z,7.20
2018-09-13T09:20:54.320Z,5.30
2018-09-13T09:23:23.094Z,6.20
2018-09-13T09:25:51.462Z,6.20
2018-09-13T09:28:20.211Z,4.00
2018-09-13T09:30:48.602Z,5.87
2018-09-13T09:33:17.010Z,6.63
2018-09-13T09:35:45.768Z,6.53
2018-09-13T09:38:14.508Z,5.20
2018-09-13T09:40:43.318Z,7.30
2018-09-13T09:43:12.085Z,4.60
2018-09-13T09:45:40.846Z,5.23
2018-09-13T09:48:09.649Z,8.00
2018-09-13T09:50:38.031Z,6.93
2018-09-13T09:53:06.581Z,5.57
2018-09-13T09:55:35.384Z,6.13
2018-09-13T09:58:04.203Z,4.47
2018-09-13T10:00:38.217Z,6.60
2018-09-13T10:03:06.567Z,6.83
2018-09-13T10:05:35.341Z,6.10
2018-09-13T10:08:04.069Z,7.07
2018-09-13T10:10:32.874Z,8.43
2018-09-13T10:13:01.627Z,8.53
2018-09-13T10:15:35.525Z,7.23
2018-09-13T10:18:09.685Z,7.60
2018-09-13T10:21:45.356Z,6.63
2018-09-13T10:24:18.992Z,7.73
2018-09-13T10:26:52.778Z,9.07
2018-09-13T10:29:26.944Z,7.10
2018-09-13T10:32:00.457Z,8.87
2018-09-13T10:34:34.349Z,11.00
2018-09-13T10:37:08.428Z,7.73
2018-09-13T10:39:42.227Z,5.43
2018-09-13T10:42:16.201Z,8.77
2018-09-13T10:44:50.206Z,6.87
2018-09-13T10:48:26.791Z,8.83
2018-09-13T10:51:00.926Z,9.03
2018-09-13T10:53:33.197Z,7.03
2018-09-13T10:56:01.560Z,6.40
2018-09-13T10:58:30.406Z,10.27
2018-09-13T11:00:59.268Z,8.80
2018-09-13T11:03:28.022Z,7.10
2018-09-13T11:05:56.842Z,6.60
2018-09-13T11:08:25.625Z,7.57
2018-09-13T11:10:54.633Z,9.57
2018-09-13T11:13:29.192Z,7.03
2018-09-13T11:15:57.998Z,7.40
2018-09-13T11:18:26.781Z,9.73
2018-09-13T11:20:55.188Z,8.40
2018-09-13T11:23:23.930Z,6.23
2018-09-13T11:25:52.357Z,5.30
2018-09-13T11:28:20.747Z,5.77
2018-09-13T11:30:54.903Z,8.90
2018-09-13T11:33:23.627Z,6.03
2018-09-13T11:35:52.397Z,6.70
2018-09-13T11:38:20.882Z,7.53
2018-09-13T11:40:49.406Z,10.23
2018-09-13T11:43:17.675Z,9.87
2018-09-13T11:45:46.129Z,11.10
2018-09-13T11:48:14.883Z,8.40
2018-09-13T11:50:43.742Z,7.20
2018-09-13T11:53:12.196Z,7.73
2018-09-13T11:55:44.014Z,10.63
2018-09-13T11:58:13.999Z,8.93
2018-09-13T12:00:43.254Z,10.43
2018-09-13T12:03:12.606Z,12.17
2018-09-13T12:05:41.369Z,11.47
2018-09-13T12:08:10.123Z,11.33
2018-09-13T12:10:38.485Z,8.47
2018-09-13T12:13:07.305Z,5.70
2018-09-13T12:15:36.058Z,8.00
2018-09-13T12:18:04.852Z,6.13
2018-09-13T12:20:33.239Z,5.67
2018-09-13T12:23:01.975Z,7.53
2018-09-13T12:25:30.757Z,7.10
2018-09-13T12:27:59.135Z,6.10
2018-09-13T12:30:27.919Z,8.13
2018-09-13T12:32:56.676Z,6.13
2018-09-13T12:35:25.469Z,5.40
2018-09-13T12:37:54.160Z,5.07
2018-09-13T12:40:22.962Z,7.33
2018-09-13T12:42:51.721Z,5.20
2018-09-13T12:45:20.113Z,5.73
2018-09-13T12:47:48.551Z,5.33
2018-09-13T12:50:17.335Z,4.77
2018-09-13T12:52:46.117Z,8.53
2018-09-13T12:55:14.863Z,4.87
2018-09-13T12:57:43.614Z,6.53
2018-09-13T13:00:12.435Z,5.97
2018-09-13T13:02:41.190Z,5.47
2018-09-13T13:05:09.562Z,4.27
2018-09-13T13:07:38.342Z,5.93
2018-09-13T13:10:07.196Z,4.70
2018-09-13T13:12:35.959Z,5.17
2018-09-13T13:15:04.373Z,12.03
2018-09-13T13:17:33.107Z,5.00
2018-09-13T13:20:01.863Z,6.60
2018-09-13T13:22:30.599Z,3.73
2018-09-13T13:24:59.426Z,6.47
2018-09-13T13:27:27.942Z,7.43
2018-09-13T13:29:56.801Z,5.70
2018-09-13T13:32:25.892Z,6.33
2018-09-13T13:34:54.236Z,5.73
2018-09-13T13:37:23.002Z,4.83
2018-09-13T13:39:51.761Z,6.43
2018-09-13T13:42:20.137Z,5.37
2018-09-13T13:44:48.852Z,6.47
2018-09-13T13:47:17.627Z,4.63
2018-09-13T13:49:46.341Z,5.00
2018-09-13T13:52:15.066Z,2.90
2018-09-13T13:54:43.553Z,5.73
2018-09-13T13:57:12.376Z,4.87
2018-09-13T13:59:41.185Z,7.47
2018-09-13T14:02:09.574Z,3.80
2018-09-13T14:04:38.323Z,6.07
2018-09-13T14:07:07.130Z,4.90
2018-09-13T14:09:35.956Z,4.43
2018-09-13T14:12:04.789Z,6.50
2018-09-13T14:14:33.588Z,4.53
2018-09-13T14:17:02.367Z,3.97
2018-09-13T14:19:30.726Z,3.37
2018-09-13T14:21:59.539Z,3.83
2018-09-13T14:24:28.271Z,5.23
2018-09-13T14:26:56.639Z,5.33
2018-09-13T14:29:25.408Z,3.07
2018-09-13T14:31:53.742Z,5.13
2018-09-13T14:34:22.135Z,5.93
2018-09-13T14:36:50.527Z,3.67
2018-09-13T14:39:19.335Z,4.37
2018-09-13T14:41:48.118Z,6.03
2018-09-13T14:44:16.545Z,2.77
2018-09-13T14:46:45.326Z,4.83
2018-09-13T14:49:14.157Z,3.70
2018-09-13T14:51:42.912Z,3.57
2018-09-13T14:54:11.694Z,5.00
2018-09-13T14:56:40.134Z,5.43
2018-09-13T14:59:08.500Z,5.23
2018-09-13T15:01:36.860Z,4.93
2018-09-13T15:04:05.622Z,5.03
2018-09-13T15:06:33.995Z,8.07
2018-09-13T15:09:02.817Z,6.13
2018-09-13T15:11:32.572Z,3.20
2018-09-13T15:14:01.325Z,3.47
2018-09-13T15:16:30.051Z,4.03
2018-09-13T15:18:58.888Z,4.80
2018-09-13T15:21:27.627Z,4.70
2018-09-13T15:23:56.377Z,3.97
2018-09-13T15:26:24.802Z,6.60
2018-09-13T15:28:53.941Z,5.43
2018-09-13T15:31:22.767Z,4.70
2018-09-13T15:33:51.085Z,6.80
2018-09-13T15:36:19.482Z,5.13
2018-09-13T15:38:48.198Z,14.77
2018-09-13T15:41:16.805Z,7.30
2018-09-13T15:43:45.309Z,6.73
2018-09-13T15:46:13.693Z,5.73
2018-09-13T15:48:42.106Z,4.83
2018-09-13T15:51:10.827Z,6.83
2018-09-13T15:53:39.599Z,7.63
2018-09-13T15:56:07.930Z,8.77
2018-09-13T15:58:36.995Z,8.27
2018-09-13T16:01:05.825Z,6.67
2018-09-13T16:03:34.547Z,5.13
2018-09-13T16:06:03.346Z,10.33
2018-09-13T16:08:32.079Z,4.90
2018-09-13T16:11:05.382Z,4.27
2018-09-13T16:13:34.154Z,5.60
2018-09-13T16:16:02.941Z,5.03
2018-09-13T16:18:31.663Z,5.27
2018-09-13T16:21:00.546Z,5.43
2018-09-13T16:23:28.889Z,5.73
2018-09-13T16:25:57.343Z,3.63
2018-09-13T16:28:25.716Z,7.77
2018-09-13T16:30:54.495Z,4.70
2018-09-13T16:33:22.858Z,5.13
2018-09-13T16:35:53.954Z,6.67
2018-09-13T16:39:25.662Z,5.00
2018-09-13T16:41:59.906Z,4.63
2018-09-13T16:44:34.065Z,6.47
2018-09-13T16:47:08.278Z,5.10
2018-09-13T16:49:38.709Z,4.10
2018-09-13T16:52:07.521Z,4.27
2018-09-13T16:54:36.351Z,4.47
2018-09-13T16:57:04.764Z,4.10
2018-09-13T16:59:33.213Z,4.17
2018-09-13T17:02:01.585Z,4.63
2018-09-13T17:04:30.324Z,5.17
2018-09-13T17:06:59.107Z,8.17
2018-09-13T17:09:28.189Z,6.37
2018-09-13T17:11:56.933Z,3.83
2018-09-13T17:14:25.296Z,4.63
2018-09-13T17:16:54.089Z,3.33
2018-09-13T17:19:22.828Z,3.30
2018-09-13T17:21:51.314Z,9.63
2018-09-13T17:24:19.764Z,4.10
2018-09-13T17:26:48.545Z,4.70
2018-09-13T17:29:17.312Z,7.73
2018-09-13T17:31:46.044Z,10.57
2018-09-13T17:34:14.775Z,7.20
2018-09-13T17:36:43.533Z,4.73
2018-09-13T17:39:13.186Z,3.73
2018-09-13T17:41:42.095Z,6.77
2018-09-13T17:44:10.469Z,5.13
2018-09-13T17:46:40.046Z,5.37
2018-09-13T17:49:08.828Z,4.30
2018-09-13T17:51:37.241Z,6.73
2018-09-13T17:54:05.649Z,6.93
2018-09-13T17:56:34.107Z,5.23
2018-09-13T17:59:02.486Z,5.43
2018-09-13T18:01:31.239Z,5.20
2018-09-13T18:03:59.633Z,6.43
2018-09-13T18:06:28.013Z,6.77
2018-09-13T18:08:56.448Z,7.40
2018-09-13T18:11:25.140Z,7.50
2018-09-13T18:13:53.898Z,6.53
2018-09-13T18:16:22.726Z,13.03
2018-09-13T18:18:51.531Z,4.90
2018-09-13T18:21:20.327Z,7.00
2018-09-13T18:23:48.666Z,12.97
2018-09-13T18:26:17.130Z,7.97
2018-09-13T18:28:45.589Z,7.63
2018-09-13T18:31:14.572Z,7.80
2018-09-13T18:33:43.401Z,6.67
2018-09-13T18:36:12.231Z,8.17
2018-09-13T18:38:41.180Z,9.00
2018-09-13T18:41:09.959Z,8.80
2018-09-13T18:43:38.835Z,10.00
2018-09-13T18:46:07.699Z,7.10
2018-09-13T18:48:36.172Z,9.20
2018-09-13T18:51:04.906Z,8.73
2018-09-13T18:53:33.759Z,7.43
2018-09-13T18:56:02.603Z,6.87
2018-09-13T18:58:31.435Z,6.73
2018-09-13T19:01:00.236Z,6.03
2018-09-13T19:03:29.043Z,6.60
2018-09-13T19:05:58.635Z,4.90
2018-09-13T19:08:27.083Z,5.03
2018-09-13T19:10:55.509Z,5.97
2018-09-13T19:13:24.231Z,6.87
2018-09-13T19:15:52.806Z,5.97
2018-09-13T19:18:21.684Z,6.23
2018-09-13T19:20:50.076Z,4.70
2018-09-13T19:23:18.880Z,4.67
2018-09-13T19:25:47.653Z,5.73
2018-09-13T19:28:17.082Z,4.17
2018-09-13T19:30:45.409Z,5.77
2018-09-13T19:33:13.846Z,5.87
2018-09-13T19:35:42.627Z,6.23
2018-09-13T19:38:11.393Z,6.67
2018-09-13T19:40:39.985Z,7.77
2018-09-13T19:43:09.021Z,8.03
2018-09-13T19:45:37.962Z,6.80
2018-09-13T19:48:06.494Z,7.83
2018-09-13T19:50:35.065Z,7.30
2018-09-13T19:53:03.481Z,7.03
2018-09-13T19:55:31.957Z,5.90
2018-09-13T19:58:00.371Z,6.20
2018-09-13T20:00:29.182Z,10.97
2018-09-13T20:02:57.971Z,7.53
2018-09-13T20:05:26.906Z,7.20
2018-09-13T20:07:55.335Z,6.80
2018-09-13T20:10:23.775Z,6.53
2018-09-13T20:12:52.567Z,6.93
2018-09-13T20:15:21.021Z,7.53
2018-09-13T20:17:49.465Z,7.50
2018-09-13T20:20:18.245Z,7.90
2018-09-13T20:22:46.612Z,8.07
2018-09-13T20:25:15.422Z,9.13
2018-09-13T20:27:43.774Z,11.70
2018-09-13T20:30:12.575Z,8.53
2018-09-13T20:32:40.945Z,11.50
2018-09-13T20:35:09.998Z,8.77
2018-09-13T20:37:38.394Z,7.57
2018-09-13T20:40:07.307Z,8.60
2018-09-13T20:42:36.131Z,14.67
2018-09-13T20:45:04.933Z,11.33
2018-09-13T20:47:33.773Z,9.67
2018-09-13T20:50:02.596Z,7.53
2018-09-13T20:52:31.402Z,10.10
2018-09-13T20:54:59.772Z,9.83
2018-09-13T20:57:28.151Z,10.50
2018-09-13T20:59:56.578Z,9.77
2018-09-13T21:02:25.300Z,10.53
2018-09-13T21:04:54.097Z,9.30
2018-09-13T21:07:22.838Z,8.63
2018-09-13T21:09:51.673Z,9.77
2018-09-13T21:12:20.082Z,12.17
2018-09-13T21:14:48.465Z,10.30
2018-09-13T21:17:17.245Z,10.47
2018-09-13T21:19:45.594Z,8.47
2018-09-13T21:22:14.382Z,7.13
2018-09-13T21:24:42.775Z,8.70
2018-09-13T21:27:11.532Z,7.63
2018-09-13T21:29:39.963Z,8.53
2018-09-13T21:32:08.737Z,11.97
2018-09-13T21:34:37.060Z,7.40
2018-09-13T21:37:06.172Z,9.00
2018-09-13T21:39:34.957Z,11.27
2018-09-13T21:42:03.376Z,8.70
2018-09-13T21:44:32.285Z,9.97
2018-09-13T21:47:00.982Z,8.27
2018-09-13T21:49:29.425Z,8.10
2018-09-13T21:51:58.177Z,7.70
2018-09-13T21:54:26.623Z,7.30
2018-09-13T21:56:55.395Z,8.60
2018-09-13T21:59:24.142Z,8.77
2018-09-13T22:01:53.333Z,9.47
2018-09-13T22:04:22.100Z,9.80
2018-09-13T22:06:50.581Z,8.10
2018-09-13T22:09:19.454Z,11.63
2018-09-13T22:11:48.215Z,7.30
2018-09-13T22:14:16.607Z,8.43
2018-09-13T22:16:45.459Z,8.23
2018-09-13T22:19:13.845Z,8.97
2018-09-13T22:21:42.249Z,9.10
2018-09-13T22:24:10.604Z,8.53
2018-09-13T22:26:39.345Z,8.20
2018-09-13T22:29:07.831Z,10.10
2018-09-13T22:31:36.563Z,10.20
2018-09-13T22:34:06.990Z,9.03
2018-09-13T22:36:36.074Z,9.13
2018-09-13T22:39:07.692Z,11.03
2018-09-13T22:41:36.564Z,8.63
2018-09-13T22:44:05.040Z,9.13
2018-09-13T22:46:33.418Z,9.30
2018-09-13T22:49:02.037Z,12.20
2018-09-13T22:51:30.389Z,10.87
2018-09-13T22:53:58.783Z,10.73
2018-09-13T22:56:27.521Z,8.87
2018-09-13T22:58:56.541Z,8.93
2018-09-13T23:01:24.983Z,10.00
2018-09-13T23:03:53.376Z,9.83
2018-09-13T23:06:21.755Z,9.07
2018-09-13T23:08:50.523Z,11.10
2018-09-13T23:11:19.323Z,10.23
2018-09-13T23:13:48.089Z,11.13
2018-09-13T23:16:17.026Z,9.30
2018-09-13T23:18:45.434Z,7.97
2018-09-13T23:21:14.460Z,11.73
2018-09-13T23:23:42.841Z,8.23
2018-09-13T23:26:11.216Z,8.77
2018-09-13T23:28:40.026Z,7.90
2018-09-13T23:31:08.793Z,8.57
2018-09-13T23:33:37.166Z,7.70
2018-09-13T23:36:05.505Z,6.23
2018-09-13T23:38:34.322Z,7.70
2018-09-13T23:41:03.104Z,7.10
2018-09-13T23:43:31.866Z,7.20
2018-09-13T23:46:00.294Z,7.83
2018-09-13T23:48:28.691Z,8.73
2018-09-13T23:50:57.058Z,8.60
2018-09-13T23:53:25.808Z,8.67
2018-09-13T23:55:54.143Z,8.87
2018-09-13T23:58:22.577Z,8.23
